Time;durP1;ratioP1;P1;durP2;ratioP2;P2;SDS_P1;SDS_P2;PMS_P1;PMS_P2;Temp;Humidity;BMP_temperature;BMP_pressure;BME280_temperature;BME280_humidity;BME280_pressure;Samples;Min_cycle;Max_cycle;Signal;HPM_P1;HPM_P2
2023/01/23 00:01:39;;;;;;;61.88;38.60;;;;;;;-0.74;100.00;103284.00;6139157;23;20023;-81
2023/01/23 00:04:04;;;;;;;59.60;38.50;;;;;;;-0.69;100.00;103295.50;6138134;23;20021;-81
2023/01/23 00:06:30;;;;;;;60.08;37.65;;;;;;;-0.71;100.00;103286.72;6142508;23;20009;-80
2023/01/23 00:08:55;;;;;;;61.72;40.03;;;;;;;-0.71;100.00;103289.34;6139332;23;20033;-80
2023/01/23 00:11:23;;;;;;;57.42;38.42;;;;;;;-0.71;100.00;103286.72;6139137;23;20001;-81
2023/01/23 00:13:49;;;;;;;58.90;36.38;;;;;;;-0.67;100.00;103280.78;6128577;23;20006;-80
2023/01/23 00:16:17;;;;;;;62.83;38.75;;;;;;;-0.67;100.00;103274.63;6120156;23;20061;-79
2023/01/23 00:18:42;;;;;;;62.53;38.53;;;;;;;-0.67;100.00;103283.38;6118369;23;20012;-80
2023/01/23 00:21:11;;;;;;;57.00;38.67;;;;;;;-0.66;100.00;103290.38;6115881;23;20104;-80
2023/01/23 00:23:37;;;;;;;57.88;37.50;;;;;;;-0.66;100.00;103284.28;6116760;23;20009;-80
2023/01/23 00:26:09;;;;;;;64.90;38.95;;;;;;;-0.67;100.00;103283.38;6119318;23;20052;-81
2023/01/23 00:28:35;;;;;;;61.67;39.07;;;;;;;-0.66;100.00;103279.94;6119186;23;20033;-81
2023/01/23 00:31:06;;;;;;;56.35;37.53;;;;;;;-0.67;100.00;103286.00;6118530;23;20202;-81
2023/01/23 00:33:31;;;;;;;59.42;38.65;;;;;;;-0.69;100.00;103287.66;6117566;23;20044;-81
2023/01/23 00:35:57;;;;;;;58.97;38.05;;;;;;;-0.70;100.00;103282.38;6117464;23;20432;-80
2023/01/23 00:38:22;;;;;;;63.25;37.30;;;;;;;-0.65;100.00;103294.78;6116972;23;20013;-81
2023/01/23 00:40:47;;;;;;;57.28;37.58;;;;;;;-0.67;100.00;103296.47;6117446;23;20292;-82
2023/01/23 00:43:13;;;;;;;57.63;36.30;;;;;;;-0.72;100.00;103284.94;6116955;23;20442;-81
2023/01/23 00:45:38;;;;;;;57.08;36.80;;;;;;;-0.66;100.00;103298.25;6117393;23;20711;-81
2023/01/23 00:48:03;;;;;;;58.55;37.67;;;;;;;-0.68;100.00;103297.28;6115427;23;20013;-80
2023/01/23 00:50:29;;;;;;;57.67;37.88;;;;;;;-0.64;100.00;103313.97;6114158;23;20006;-81
2023/01/23 00:52:54;;;;;;;56.17;36.58;;;;;;;-0.65;100.00;103307.84;6116977;23;20009;-81
2023/01/23 00:55:19;;;;;;;57.42;37.33;;;;;;;-0.62;100.00;103313.19;6114977;23;20119;-81
2023/01/23 00:57:44;;;;;;;58.72;38.10;;;;;;;-0.64;100.00;103306.13;6117036;23;20006;-80
2023/01/23 01:00:10;;;;;;;56.17;37.03;;;;;;;-0.62;100.00;103307.09;6112285;23;20359;-81
2023/01/23 01:02:36;;;;;;;61.67;38.28;;;;;;;-0.64;100.00;103307.00;6116668;23;20014;-81
2023/01/23 01:05:01;;;;;;;61.58;38.53;;;;;;;-0.61;100.00;103309.75;6114579;23;20009;-80
2023/01/23 01:07:26;;;;;;;57.47;37.88;;;;;;;-0.60;100.00;103308.91;6114870;23;20010;-81
2023/01/23 01:09:51;;;;;;;59.08;37.15;;;;;;;-0.63;100.00;103300.94;6115594;23;20060;-80
2023/01/23 01:12:18;;;;;;;60.17;37.75;;;;;;;-0.60;100.00;103306.28;6116512;23;20010;-80
2023/01/23 01:14:43;;;;;;;55.03;36.00;;;;;;;-0.61;100.00;103307.13;6117399;23;20429;-80
2023/01/23 01:17:09;;;;;;;56.53;36.10;;;;;;;-0.67;100.00;103287.69;6117392;23;20196;-81
2023/01/23 01:19:35;;;;;;;58.25;37.67;;;;;;;-0.64;100.00;103293.94;6116569;23;20324;-80
2023/01/23 01:22:00;;;;;;;59.60;37.28;;;;;;;-0.61;100.00;103298.38;6117551;23;20372;-81
2023/01/23 01:24:25;;;;;;;57.58;38.15;;;;;;;-0.65;100.00;103297.38;6118318;23;20017;-80
2023/01/23 01:26:51;;;;;;;55.65;36.33;;;;;;;-0.59;100.00;103312.41;6132846;23;20017;-81
2023/01/23 01:29:16;;;;;;;55.78;36.42;;;;;;;-0.58;100.00;103314.19;6144735;23;19997;-81
2023/01/23 01:31:41;;;;;;;59.00;36.72;;;;;;;-0.57;100.00;103310.75;6144891;23;20069;-80
2023/01/23 01:34:07;;;;;;;56.30;36.22;;;;;;;-0.60;100.00;103311.50;6121059;23;20029;-81
2023/01/23 01:36:32;;;;;;;66.05;37.47;;;;;;;-0.58;100.00;103316.81;6116943;23;20014;-81
2023/01/23 01:38:57;;;;;;;56.10;36.95;;;;;;;-0.58;100.00;103309.84;6117884;23;20255;-80
2023/01/23 01:41:23;;;;;;;54.83;36.10;;;;;;;-0.61;100.00;103311.47;6118901;23;20041;-80
2023/01/23 01:43:48;;;;;;;55.60;36.72;;;;;;;-0.59;100.00;103312.41;6120265;23;20033;-81
2023/01/23 01:46:25;;;;;;;59.88;37.03;;;;;;;-0.62;100.00;103312.31;6118259;23;20088;-80
2023/01/23 01:49:07;;;;;;;57.80;37.50;;;;;;;-0.59;100.00;103318.50;6117768;23;20068;-80
2023/01/23 01:51:50;;;;;;;55.15;38.42;;;;;;;-0.58;100.00;103316.81;6115813;23;20021;-80
2023/01/23 01:54:37;;;;;;;55.80;36.23;;;;;;;-0.57;100.00;103318.59;6119573;23;20009;-81
2023/01/23 01:57:17;;;;;;;56.70;36.10;;;;;;;-0.60;100.00;103321.09;6117981;23;20002;-81
2023/01/23 01:59:58;;;;;;;58.35;37.63;;;;;;;-0.62;100.00;103320.16;6118208;23;20379;-80
2023/01/23 02:02:28;;;;;;;54.25;35.50;;;;;;;-0.59;100.00;103333.31;6117532;23;20025;-80
2023/01/23 02:05:00;;;;;;;58.25;36.58;;;;;;;-0.59;100.00;103326.38;6142174;23;20014;-80
2023/01/23 02:07:37;;;;;;;57.00;36.40;;;;;;;-0.58;100.00;103319.44;6143457;23;20017;-81
2023/01/23 02:10:05;;;;;;;54.35;35.25;;;;;;;-0.62;100.00;103307.97;6133008;23;20012;-81
2023/01/23 02:12:33;;;;;;;53.72;35.75;;;;;;;-0.62;100.00;103315.81;6116104;23;20348;-81
2023/01/23 02:14:58;;;;;;;57.92;36.42;;;;;;;-0.58;100.00;103319.44;6118053;23;20002;-81
2023/01/23 02:17:24;;;;;;;54.83;35.85;;;;;;;-0.61;100.00;103312.34;6117843;23;20101;-82
2023/01/23 02:20:16;;;;;;;54.60;35.90;;;;;;;-0.59;100.00;103318.50;6119106;23;20396;-81
2023/01/23 02:22:56;;;;;;;57.83;36.40;;;;;;;-0.59;100.00;103322.88;6111638;23;20026;-81
2023/01/23 02:25:33;;;;;;;54.85;35.08;;;;;;;-0.59;100.00;103321.13;6116594;23;20010;-81
2023/01/23 02:28:00;;;;;;;59.80;37.90;;;;;;;-0.57;100.00;103321.22;6117015;23;20002;-81
2023/01/23 02:30:25;;;;;;;56.40;37.30;;;;;;;-0.64;100.00;103300.91;6116325;23;20013;-81
2023/01/23 02:32:50;;;;;;;61.05;37.13;;;;;;;-0.60;100.00;103306.28;6117141;23;20006;-81
2023/01/23 02:35:29;;;;;;;61.60;37.53;;;;;;;-0.57;100.00;103309.00;6116871;23;20017;-81
2023/01/23 02:37:59;;;;;;;59.90;38.08;;;;;;;-0.58;100.00;103314.19;6117330;23;20040;-82
2023/01/23 02:40:36;;;;;;;56.58;35.58;;;;;;;-0.58;100.00;103315.09;6115764;23;20368;-81
2023/01/23 02:43:04;;;;;;;56.03;36.53;;;;;;;-0.55;100.00;103320.41;6117523;23;20064;-80
2023/01/23 02:45:30;;;;;;;54.72;36.75;;;;;;;-0.54;100.00;103321.31;6115528;23;20361;-81
2023/01/23 02:47:55;;;;;;;61.13;36.85;;;;;;;-0.54;100.00;103316.97;6115936;23;20010;-81
2023/01/23 02:50:21;;;;;;;57.40;35.17;;;;;;;-0.53;100.00;103304.78;6114645;23;20349;-81
2023/01/23 02:52:48;;;;;;;58.50;36.22;;;;;;;-0.56;100.00;103302.94;6117224;23;20016;-81
2023/01/23 02:55:13;;;;;;;63.72;37.72;;;;;;;-0.53;100.00;103308.28;6116269;23;20016;-81
2023/01/23 02:57:39;;;;;;;64.13;38.42;;;;;;;-0.53;100.00;103315.25;6116652;23;20328;-81
2023/01/23 03:00:18;;;;;;;58.42;37.40;;;;;;;-0.54;100.00;103303.00;6116294;23;20799;-81
2023/01/23 03:02:46;;;;;;;56.83;37.30;;;;;;;-0.51;100.00;103314.44;6117829;23;20012;-80
2023/01/23 03:05:11;;;;;;;59.67;36.97;;;;;;;-0.48;100.00;103321.50;6114954;23;20017;-80
2023/01/23 03:07:37;;;;;;;59.90;36.60;;;;;;;-0.49;100.00;103317.13;6128176;23;20006;-80
2023/01/23 03:10:04;;;;;;;57.35;37.63;;;;;;;-0.49;100.00;103314.50;6116059;23;20009;-80
2023/01/23 03:12:29;;;;;;;59.15;36.50;;;;;;;-0.50;100.00;103310.13;6142551;23;20069;-81
2023/01/23 03:14:55;;;;;;;54.55;35.55;;;;;;;-0.48;100.00;103305.81;6140425;23;20000;-80
2023/01/23 03:17:21;;;;;;;56.13;37.92;;;;;;;-0.48;100.00;103311.06;6101000;23;20089;-81
2023/01/23 03:19:47;;;;;;;57.55;35.92;;;;;;;-0.47;100.00;103311.94;6115102;23;19998;-80
2023/01/23 03:22:12;;;;;;;55.65;35.92;;;;;;;-0.48;100.00;103318.00;6116210;23;20026;-81
2023/01/23 03:24:38;;;;;;;58.97;38.30;;;;;;;-0.45;100.00;103321.63;6116650;23;20086;-80
2023/01/23 03:27:03;;;;;;;59.53;38.60;;;;;;;-0.47;100.00;103314.56;6116937;23;20010;-82
2023/01/23 03:32:14;;;;;;;57.78;36.58;;;;;;;-0.45;100.00;103316.41;6117859;23;20020;-80
2023/01/23 03:34:40;;;;;;;62.17;35.88;;;;;;;-0.46;100.00;103313.72;6118812;23;20081;-81
2023/01/23 03:37:06;;;;;;;60.63;38.22;;;;;;;-0.43;100.00;103325.16;6115472;23;20010;-81
2023/01/23 03:42:16;;;;;;;60.25;37.35;;;;;;;-0.47;100.00;103302.34;6144857;23;20013;-81
2023/01/23 03:44:41;;;;;;;64.45;37.63;;;;;;;-0.44;100.00;103315.56;6143673;23;20010;-81
2023/01/23 03:47:07;;;;;;;59.20;37.63;;;;;;;-0.46;100.00;103314.63;6130982;23;20093;-81
2023/01/23 03:49:32;;;;;;;66.18;37.22;;;;;;;-0.42;100.00;103320.81;6116160;23;20037;-81
2023/01/23 03:51:58;;;;;;;61.20;39.55;;;;;;;-0.40;100.00;103321.78;6116889;23;20005;-81
2023/01/23 03:54:23;;;;;;;62.92;37.28;;;;;;;-0.43;100.00;103321.66;6117845;23;20014;-80
2023/01/23 03:56:48;;;;;;;66.13;39.05;;;;;;;-0.41;100.00;103317.41;6120248;23;20076;-81
2023/01/23 03:59:14;;;;;;;64.70;37.80;;;;;;;-0.39;100.00;103327.06;6118852;23;20002;-81
2023/01/23 04:01:39;;;;;;;61.75;38.42;;;;;;;-0.44;100.00;103318.16;6118947;23;20391;-81
2023/01/23 04:04:05;;;;;;;59.08;37.60;;;;;;;-0.43;100.00;103319.06;6117786;23;20141;-81
2023/01/23 04:06:30;;;;;;;65.07;38.15;;;;;;;-0.39;100.00;103320.94;6118427;23;20002;-80
2023/01/23 04:08:57;;;;;;;59.65;38.08;;;;;;;-0.40;100.00;103327.91;6131523;23;20001;-80
2023/01/23 04:11:23;;;;;;;58.85;36.90;;;;;;;-0.39;100.00;103327.06;6144310;23;20009;-81
2023/01/23 04:13:48;;;;;;;59.75;38.25;;;;;;;-0.41;100.00;103318.28;6144544;23;20010;-80
2023/01/23 04:16:13;;;;;;;60.80;37.85;;;;;;;-0.40;100.00;103325.28;6121308;23;20610;-81
2023/01/23 04:18:39;;;;;;;63.50;38.17;;;;;;;-0.38;100.00;103326.22;6115980;23;20021;-81
2023/01/23 04:21:04;;;;;;;65.63;40.10;;;;;;;-0.36;100.00;103326.28;6117544;23;20541;-81
2023/01/23 04:23:30;;;;;;;69.65;39.05;;;;;;;-0.37;100.00;103324.50;6118601;23;20006;-81
2023/01/23 04:25:55;;;;;;;64.80;39.40;;;;;;;-0.36;100.00;103328.91;6118398;23;20036;-82
2023/01/23 04:28:21;;;;;;;67.00;39.28;;;;;;;-0.36;100.00;103331.53;6114946;23;20220;-81
2023/01/23 04:30:46;;;;;;;63.58;39.95;;;;;;;-0.40;100.00;103325.28;6110208;23;20006;-80
2023/01/23 04:33:11;;;;;;;64.30;39.20;;;;;;;-0.35;100.00;103330.66;6113403;23;20006;-80
2023/01/23 04:35:37;;;;;;;70.47;40.13;;;;;;;-0.35;100.00;103325.44;6115277;23;20044;-80
2023/01/23 04:38:03;;;;;;;65.75;40.28;;;;;;;-0.35;100.00;103323.72;6115519;23;20017;-80
2023/01/23 04:40:28;;;;;;;63.60;38.97;;;;;;;-0.35;100.00;103339.41;6116298;23;20002;-80
2023/01/23 04:42:54;;;;;;;62.83;39.80;;;;;;;-0.41;100.00;103330.47;6115484;23;20002;-80
2023/01/23 04:45:20;;;;;;;62.28;38.88;;;;;;;-0.38;100.00;103339.28;6116209;23;20009;-81
2023/01/23 04:47:45;;;;;;;66.72;40.05;;;;;;;-0.37;100.00;103340.22;6116689;23;20020;-81
2023/01/23 04:50:10;;;;;;;67.45;39.80;;;;;;;-0.34;100.00;103335.06;6114971;23;20010;-81
2023/01/23 04:52:36;;;;;;;66.97;40.22;;;;;;;-0.35;100.00;103336.78;6115978;23;20006;-81
2023/01/23 04:55:01;;;;;;;70.40;39.97;;;;;;;-0.34;100.00;103338.56;6116336;23;20064;-80
2023/01/23 04:57:26;;;;;;;64.35;38.65;;;;;;;-0.33;100.00;103336.88;6116279;23;20449;-81
2023/01/23 04:59:52;;;;;;;66.45;39.50;;;;;;;-0.33;100.00;103344.72;6115137;23;20069;-81
2023/01/23 05:02:17;;;;;;;68.38;38.90;;;;;;;-0.34;100.00;103345.53;6116478;23;20040;-81
2023/01/23 05:04:42;;;;;;;64.22;40.33;;;;;;;-0.31;100.00;103348.25;6114360;23;20600;-81
2023/01/23 05:07:10;;;;;;;65.45;38.13;;;;;;;-0.30;100.00;103347.41;6114527;23;20006;-81
2023/01/23 05:09:37;;;;;;;67.28;40.28;;;;;;;-0.31;100.00;103340.41;6114958;23;20018;-81
2023/01/23 05:12:03;;;;;;;65.05;39.47;;;;;;;-0.33;100.00;103347.34;6115764;23;20340;-81
2023/01/23 05:14:28;;;;;;;63.78;39.30;;;;;;;-0.33;100.00;103348.22;6115628;23;20006;-81
2023/01/23 05:16:54;;;;;;;67.03;38.80;;;;;;;-0.31;100.00;103350.88;6116376;23;20161;-81
2023/01/23 05:19:19;;;;;;;63.65;38.17;;;;;;;-0.31;100.00;103354.38;6114752;23;20002;-80
2023/01/23 05:21:44;;;;;;;65.63;40.03;;;;;;;-0.30;100.00;103350.03;6114669;23;20010;-81
2023/01/23 05:24:10;;;;;;;62.78;36.70;;;;;;;-0.30;100.00;103352.66;6115381;23;20033;-81
2023/01/23 05:26:35;;;;;;;63.75;37.33;;;;;;;-0.31;100.00;103358.72;6115912;23;20006;-81
2023/01/23 05:29:00;;;;;;;66.95;38.50;;;;;;;-0.32;100.00;103346.50;6114826;23;20006;-81
2023/01/23 05:31:26;;;;;;;63.08;38.30;;;;;;;-0.30;100.00;103364.00;6114781;23;20006;-81
2023/01/23 05:33:51;;;;;;;63.63;38.97;;;;;;;-0.28;100.00;103361.47;6114887;23;20496;-80
2023/01/23 05:36:17;;;;;;;66.53;39.78;;;;;;;-0.29;100.00;103354.44;6114060;23;20133;-81
2023/01/23 05:38:42;;;;;;;67.28;39.83;;;;;;;-0.27;100.00;103355.38;6116352;23;20016;-81
2023/01/23 05:41:07;;;;;;;65.07;39.75;;;;;;;-0.25;100.00;103366.81;6115927;23;20009;-80
2023/01/23 05:43:32;;;;;;;62.92;38.95;;;;;;;-0.28;100.00;103364.97;6116426;23;20026;-80
2023/01/23 05:46:00;;;;;;;70.40;40.90;;;;;;;-0.27;100.00;103361.50;6114741;23;20102;-80
2023/01/23 05:48:25;;;;;;;65.18;38.83;;;;;;;-0.23;100.00;103369.47;6115856;23;20036;-81
2023/01/23 05:50:51;;;;;;;69.95;39.20;;;;;;;-0.24;100.00;103370.31;6116681;23;20002;-80
2023/01/23 05:53:16;;;;;;;61.55;37.65;;;;;;;-0.26;100.00;103375.47;6116702;23;20008;-80
2023/01/23 05:55:41;;;;;;;62.97;39.25;;;;;;;-0.24;100.00;103384.28;6118699;23;20034;-80
2023/01/23 05:58:07;;;;;;;62.72;39.17;;;;;;;-0.21;100.00;103386.09;6100366;23;20013;-80
2023/01/23 06:00:32;;;;;;;65.65;39.83;;;;;;;-0.20;100.00;103378.31;6144934;23;20030;-79
2023/01/23 06:02:57;;;;;;;65.28;38.28;;;;;;;-0.23;100.00;103374.69;6144631;23;20045;-80
2023/01/23 06:05:23;;;;;;;64.85;38.97;;;;;;;-0.18;100.00;103388.81;6131335;23;20419;-81
2023/01/23 06:07:48;;;;;;;63.50;38.50;;;;;;;-0.23;100.00;103383.44;6118381;23;20524;-81
2023/01/23 06:10:14;;;;;;;65.75;38.83;;;;;;;-0.19;100.00;103397.53;6122796;23;20420;-80
2023/01/23 06:12:39;;;;;;;64.28;38.92;;;;;;;-0.19;100.00;103387.94;6142771;23;20076;-81
2023/01/23 06:15:05;;;;;;;62.10;36.95;;;;;;;-0.23;100.00;103379.94;6143327;23;20148;-80
2023/01/23 06:17:30;;;;;;;59.95;37.42;;;;;;;-0.17;100.00;103381.00;6140130;23;20018;-82
2023/01/23 06:19:57;;;;;;;59.95;39.15;;;;;;;-0.19;100.00;103379.19;6143868;23;20083;-81
2023/01/23 06:22:22;;;;;;;61.75;38.47;;;;;;;-0.19;100.00;103381.81;6146402;23;20010;-83
2023/01/23 06:24:47;;;;;;;57.50;36.63;;;;;;;-0.19;100.00;103387.06;6172819;23;20029;-82
2023/01/23 06:27:13;;;;;;;66.28;39.30;;;;;;;-0.16;100.00;103388.06;6154282;23;20018;-82
2023/01/23 06:29:38;;;;;;;63.67;38.38;;;;;;;-0.17;100.00;103396.72;6149655;23;20005;-82
2023/01/23 06:32:04;;;;;;;59.92;38.03;;;;;;;-0.16;100.00;103397.63;6149588;23;20006;-81
2023/01/23 06:34:29;;;;;;;62.53;37.75;;;;;;;-0.15;100.00;103389.81;6150193;23;20025;-82
2023/01/23 06:36:54;;;;;;;59.55;38.70;;;;;;;-0.13;100.00;103402.94;6149681;23;20450;-82
2023/01/23 06:39:20;;;;;;;58.53;36.35;;;;;;;-0.14;100.00;103402.06;6149486;23;20001;-82
2023/01/23 06:41:45;;;;;;;62.33;38.75;;;;;;;-0.15;100.00;103395.06;6149870;23;20420;-82
2023/01/23 06:44:10;;;;;;;62.60;38.45;;;;;;;-0.13;100.00;103392.47;6149175;23;20005;-82
2023/01/23 06:46:36;;;;;;;55.45;36.80;;;;;;;-0.13;100.00;103401.22;6121722;23;20014;-82
2023/01/23 06:49:02;;;;;;;61.75;37.63;;;;;;;-0.13;100.00;103398.59;6147480;23;20009;-81
2023/01/23 06:51:27;;;;;;;62.00;37.97;;;;;;;-0.14;100.00;103395.94;6147512;23;20076;-81
2023/01/23 06:53:53;;;;;;;58.20;36.30;;;;;;;-0.16;100.00;103385.44;6121592;23;20478;-82
2023/01/23 06:56:18;;;;;;;58.83;36.90;;;;;;;-0.16;100.00;103398.53;6147158;23;20096;-82
2023/01/23 06:58:45;;;;;;;64.28;39.33;;;;;;;-0.13;100.00;103402.94;6147265;23;20432;-81
2023/01/23 07:01:14;;;;;;;65.07;39.03;;;;;;;-0.14;100.00;103399.44;6146305;23;20005;-81
2023/01/23 07:03:41;;;;;;;60.85;38.63;;;;;;;-0.23;100.00;103396.53;6146943;23;20479;-81
2023/01/23 07:06:06;;;;;;;60.92;37.50;;;;;;;-0.17;100.00;103412.41;6146834;23;20083;-81
2023/01/23 07:08:35;;;;;;;61.22;38.30;;;;;;;-0.14;100.00;103422.13;6145774;23;20001;-81
2023/01/23 07:11:01;;;;;;;60.67;37.72;;;;;;;-0.15;100.00;103418.63;6120762;23;20005;-81
2023/01/23 07:13:27;;;;;;;64.03;39.22;;;;;;;-0.16;100.00;103413.34;6147475;23;20005;-82
2023/01/23 07:15:52;;;;;;;62.78;39.33;;;;;;;-0.17;100.00;103417.66;6147031;23;20037;-81
2023/01/23 07:18:17;;;;;;;61.75;38.22;;;;;;;-0.13;100.00;103424.78;6145871;23;20317;-81
2023/01/23 07:20:46;;;;;;;60.22;37.70;;;;;;;-0.15;100.00;103429.09;6141722;23;20102;-81
2023/01/23 07:23:11;;;;;;;59.17;37.78;;;;;;;-0.11;100.00;103432.72;6116798;23;20093;-81
2023/01/23 07:25:38;;;;;;;60.08;37.35;;;;;;;-0.12;100.00;103420.47;6116823;23;20743;-81
2023/01/23 07:28:04;;;;;;;56.83;35.95;;;;;;;-0.12;100.00;103426.59;6114186;23;20033;-81
2023/01/23 07:30:30;;;;;;;59.63;37.58;;;;;;;-0.14;100.00;103423.00;6116976;23;20013;-81
2023/01/23 07:32:57;;;;;;;63.17;39.15;;;;;;;-0.11;100.00;103427.47;6117964;23;20006;-81
2023/01/23 07:35:22;;;;;;;59.33;37.00;;;;;;;-0.13;100.00;103423.91;6117078;23;20006;-81
2023/01/23 07:37:48;;;;;;;60.40;38.08;;;;;;;-0.10;100.00;103431.84;6115566;23;20013;-81
2023/01/23 07:40:13;;;;;;;58.53;37.03;;;;;;;-0.09;100.00;103437.13;6116943;23;20359;-81
2023/01/23 07:42:40;;;;;;;57.08;36.90;;;;;;;-0.11;100.00;103430.09;6115434;23;20005;-81
2023/01/23 07:45:07;;;;;;;59.00;36.63;;;;;;;-0.07;100.00;103443.34;6115596;23;20005;-82
2023/01/23 07:47:33;;;;;;;57.42;35.95;;;;;;;-0.07;100.00;103448.56;6116212;23;20129;-81
2023/01/23 07:49:59;;;;;;;57.75;38.15;;;;;;;-0.05;100.00;103461.69;6117390;23;20432;-82
2023/01/23 07:52:24;;;;;;;62.35;37.30;;;;;;;-0.04;100.00;103455.66;6115981;23;20121;-81
2023/01/23 07:54:49;;;;;;;58.47;37.97;;;;;;;-0.01;100.00;103456.63;6116977;23;20014;-81
2023/01/23 07:57:15;;;;;;;55.30;34.95;;;;;;;-0.02;100.00;103462.72;6116109;23;20013;-81
2023/01/23 07:59:40;;;;;;;56.03;36.83;;;;;;;0.02;100.00;103470.69;6117018;23;20329;-81
2023/01/23 08:02:08;;;;;;;56.97;36.75;;;;;;;0.01;100.00;103469.78;6117468;23;20105;-81
2023/01/23 08:04:33;;;;;;;58.08;36.55;;;;;;;0.06;100.00;103467.31;6114618;23;20002;-81
2023/01/23 08:06:59;;;;;;;61.30;37.53;;;;;;;0.03;100.00;103460.25;6119666;23;20005;-81
2023/01/23 08:09:24;;;;;;;56.75;36.78;;;;;;;0.05;100.00;103460.31;6142370;23;20056;-82
2023/01/23 08:11:51;;;;;;;53.40;35.22;;;;;;;0.08;100.00;103460.41;6144682;23;20001;-81
2023/01/23 08:14:16;;;;;;;53.70;36.08;;;;;;;0.08;100.00;103470.88;6138056;23;20021;-82
2023/01/23 08:16:41;;;;;;;57.78;36.17;;;;;;;0.09;100.00;103463.09;6117373;23;20013;-82
2023/01/23 08:19:07;;;;;;;56.20;36.03;;;;;;;0.13;100.00;103464.09;6119899;23;20048;-82
2023/01/23 08:21:32;;;;;;;54.17;35.35;;;;;;;0.15;100.00;103463.28;6117756;23;20088;-81
2023/01/23 08:24:00;;;;;;;52.65;35.33;;;;;;;0.15;100.00;103468.53;6120474;23;20005;-81
2023/01/23 08:26:25;;;;;;;55.65;35.80;;;;;;;0.17;100.00;103468.59;6134981;23;20010;-82
2023/01/23 08:28:51;;;;;;;52.15;34.65;;;;;;;0.15;100.00;103465.91;6141324;23;20070;-81
2023/01/23 08:31:16;;;;;;;53.28;35.63;;;;;;;0.22;100.00;103472.25;6142321;23;20014;-80
2023/01/23 08:33:41;;;;;;;52.20;35.42;;;;;;;0.23;100.00;103476.66;6119564;23;20492;-82
2023/01/23 08:36:07;;;;;;;52.22;34.90;;;;;;;0.18;100.00;103475.59;6118802;23;20005;-82
2023/01/23 08:38:33;;;;;;;54.25;36.67;;;;;;;0.18;100.00;103459.88;6117259;23;20010;-81
2023/01/23 08:41:01;;;;;;;52.25;34.78;;;;;;;0.27;100.00;103475.91;6116709;23;20412;-81
2023/01/23 08:43:26;;;;;;;50.25;34.72;;;;;;;0.28;100.00;103482.03;6117780;23;20025;-81
2023/01/23 08:45:53;;;;;;;48.75;33.63;;;;;;;0.29;100.00;103489.03;6115821;23;20014;-80
2023/01/23 08:48:21;;;;;;;49.97;34.58;;;;;;;0.30;100.00;103488.22;6114814;23;20085;-81
2023/01/23 08:50:47;;;;;;;51.35;35.83;;;;;;;0.31;100.00;103490.00;6116167;23;20005;-80
2023/01/23 08:53:12;;;;;;;52.72;34.20;;;;;;;0.29;100.00;103481.19;6117261;23;20037;-81
2023/01/23 08:55:38;;;;;;;52.97;34.30;;;;;;;0.34;100.00;103493.63;6117415;23;20006;-81
2023/01/23 08:58:05;;;;;;;49.25;34.45;;;;;;;0.33;100.00;103494.44;6117084;23;20005;-81
2023/01/23 09:00:32;;;;;;;48.80;34.13;;;;;;;0.36;100.00;103499.78;6115858;23;20021;-81
2023/01/23 09:03:02;;;;;;;54.50;34.83;;;;;;;0.33;100.00;103488.31;6116708;23;20021;-81
2023/01/23 09:05:28;;;;;;;50.40;35.42;;;;;;;0.35;100.00;103489.28;6116890;23;20115;-81
2023/01/23 09:07:54;;;;;;;50.58;33.97;;;;;;;0.41;100.00;103494.69;6116828;23;20050;-80
2023/01/23 09:10:20;;;;;;;47.78;32.83;;;;;;;0.40;100.00;103496.44;6116806;23;20105;-81
2023/01/23 09:12:45;;;;;;;47.08;33.88;;;;;;;0.37;100.00;103483.22;6116568;23;20030;-81
2023/01/23 09:15:11;;;;;;;47.83;33.47;;;;;;;0.47;100.00;103498.44;6116181;23;20057;-82
2023/01/23 09:17:36;;;;;;;46.05;33.30;;;;;;;0.52;100.00;103497.69;6114747;23;20040;-81
2023/01/23 09:20:04;;;;;;;47.22;32.53;;;;;;;0.57;100.00;103498.72;6117124;23;20010;-81
2023/01/23 09:22:30;;;;;;;47.65;33.65;;;;;;;0.60;100.00;103504.09;6116784;23;20014;-81
2023/01/23 09:24:55;;;;;;;48.50;32.47;;;;;;;0.66;100.00;103509.50;6116712;23;20012;-81
2023/01/23 09:27:20;;;;;;;47.75;33.50;;;;;;;0.70;100.00;103495.66;6116025;23;20010;-82
2023/01/23 09:29:48;;;;;;;46.70;32.70;;;;;;;0.72;100.00;103507.09;6118057;23;20050;-79
2023/01/23 09:32:13;;;;;;;47.30;31.85;;;;;;;0.72;100.00;103500.13;6116536;23;20596;-79
2023/01/23 09:34:38;;;;;;;46.17;32.35;;;;;;;0.77;100.00;103500.28;6118928;23;20081;-79
2023/01/23 09:37:04;;;;;;;43.33;30.20;;;;;;;0.82;100.00;103495.16;6120941;23;20016;-80
2023/01/23 09:39:30;;;;;;;43.85;30.88;;;;;;;0.84;100.00;103497.00;6137376;23;19998;-82
2023/01/23 09:41:55;;;;;;;46.47;31.60;;;;;;;0.87;100.00;103497.09;6136185;23;20008;-82
2023/01/23 09:44:43;;;;;;;40.72;30.05;;;;;;;1.01;100.00;103497.53;6134739;23;20409;-80
2023/01/23 09:47:36;;;;;;;41.05;30.25;;;;;;;1.03;100.00;103489.72;6140951;23;19990;-79
2023/01/23 09:50:07;;;;;;;40.42;30.45;;;;;;;1.05;100.00;103498.53;6121146;23;20013;-79
2023/01/23 09:52:53;;;;;;;44.80;30.13;;;;;;;1.07;100.00;103496.81;6118964;23;20428;-80
2023/01/23 09:55:40;;;;;;;42.45;31.92;;;;;;;1.17;100.00;103498.88;6117567;23;20313;-80
2023/01/23 09:58:17;;;;;;;43.47;30.23;;;;;;;1.21;100.00;103498.13;6117683;23;20013;-80
2023/01/23 10:00:42;;;;;;;39.53;30.20;;;;;;;1.25;100.00;103502.63;6116998;23;20060;-80
2023/01/23 10:03:14;;;;;;;38.45;29.42;;;;;;;1.31;100.00;103508.06;6118139;23;20010;-81
2023/01/23 10:05:45;;;;;;;40.92;30.40;;;;;;;1.34;100.00;103509.88;6117597;23;20017;-80
2023/01/23 10:08:38;;;;;;;38.67;29.00;;;;;;;1.36;100.00;103516.97;6118390;23;20393;-82
2023/01/23 10:11:09;;;;;;;39.33;29.33;;;;;;;1.33;100.00;103524.75;6119057;23;20005;-81
2023/01/23 10:13:58;;;;;;;40.00;29.23;;;;;;;1.31;100.00;103510.69;6119464;23;20017;-81
2023/01/23 10:16:58;;;;;;;39.30;29.00;;;;;;;1.32;100.00;103511.59;6126962;23;20070;-81
2023/01/23 10:19:48;;;;;;;38.25;29.45;;;;;;;1.38;100.00;103517.00;6139692;23;20008;-81
2023/01/23 10:22:22;;;;;;;37.88;29.50;;;;;;;1.36;100.00;103519.59;6144949;23;20010;-79
2023/01/23 10:24:53;;;;;;;39.00;29.25;;;;;;;1.37;100.00;103529.22;6119650;23;20017;-82
2023/01/23 10:27:21;;;;;;;38.65;28.83;;;;;;;1.37;100.00;103526.63;6119029;23;20006;-81
2023/01/23 10:30:22;;;;;;;37.58;29.42;;;;;;;1.40;100.00;103526.72;6119842;23;20012;-81
2023/01/23 10:32:54;;;;;;;38.22;28.73;;;;;;;1.37;100.00;103521.38;6136897;23;20056;-81
2023/01/23 10:35:31;;;;;;;42.03;29.90;;;;;;;1.38;100.00;103523.16;6144165;23;20008;-80
2023/01/23 10:38:03;;;;;;;37.90;27.98;;;;;;;1.39;100.00;103524.94;6135279;23;20089;-79
2023/01/23 10:43:15;;;;;;;36.40;27.80;;;;;;;1.37;100.00;103512.59;6118555;23;20249;-81
2023/01/23 10:45:42;;;;;;;36.72;28.80;;;;;;;1.37;100.00;103509.97;6118877;23;20006;-80
2023/01/23 10:48:32;;;;;;;36.42;29.40;;;;;;;1.41;100.00;103517.97;6120601;23;20372;-80
2023/01/23 10:51:00;;;;;;;36.42;29.15;;;;;;;1.36;100.00;103510.84;6119188;23;20421;-80
2023/01/23 10:53:26;;;;;;;37.13;28.90;;;;;;;1.38;100.00;103514.38;6119037;23;20129;-80
2023/01/23 10:55:55;;;;;;;37.47;28.45;;;;;;;1.38;100.00;103511.75;6118476;23;20010;-80
2023/01/23 10:58:35;;;;;;;38.03;28.98;;;;;;;1.42;100.00;103522.41;6118470;23;20013;-80
2023/01/23 11:01:01;;;;;;;39.15;29.65;;;;;;;1.45;100.00;103513.72;6118204;23;20006;-80
2023/01/23 11:03:33;;;;;;;38.20;29.00;;;;;;;1.47;100.00;103512.94;6118144;23;20085;-81
2023/01/23 11:06:16;;;;;;;33.53;27.25;;;;;;;1.54;100.00;103506.13;6117547;23;20009;-80
2023/01/23 11:08:54;;;;;;;36.08;28.38;;;;;;;1.55;100.00;103509.63;6118973;23;20060;-80
2023/01/23 11:11:23;;;;;;;36.83;29.10;;;;;;;1.59;100.00;103516.75;6118927;23;20014;-82
2023/01/23 11:14:03;;;;;;;36.60;27.98;;;;;;;1.58;100.00;103514.97;6117892;23;20006;-81
2023/01/23 11:16:28;;;;;;;35.35;28.42;;;;;;;1.60;100.00;103505.41;6117154;23;20026;-81